Time;durP1;ratioP1;P1;durP2;ratioP2;P2;SDS_P1;SDS_P2;PMS_P1;PMS_P2;Temp;Humidity;BMP_temperature;BMP_pressure;BME280_temperature;BME280_humidity;BME280_pressure;Samples;Min_cycle;Max_cycle;Signal;HPM_P1;HPM_P2
2023/02/07 00:00:10;;;;;;;14.93;10.10;;;22.10;99.90;;;;;;5073540;28;20051;-59
2023/02/07 00:02:36;;;;;;;18.77;10.95;;;22.10;99.90;;;;;;5067345;28;20112;-59
2023/02/07 00:05:02;;;;;;;15.40;9.80;;;22.10;99.90;;;;;;5066478;28;20485;-58
2023/02/07 00:07:28;;;;;;;14.70;10.60;;;22.10;99.90;;;;;;5059610;28;20120;-58
2023/02/07 00:09:53;;;;;;;15.32;10.18;;;22.10;99.90;;;;;;5066520;28;20414;-57
2023/02/07 00:12:19;;;;;;;15.63;10.73;;;22.10;99.90;;;;;;5066835;28;20045;-58
2023/02/07 00:14:45;;;;;;;16.60;10.30;;;22.00;99.90;;;;;;5054456;28;20052;-58
2023/02/07 00:17:11;;;;;;;16.08;10.80;;;22.10;99.90;;;;;;5053363;28;20398;-58
2023/02/07 00:19:36;;;;;;;16.65;11.40;;;22.00;99.90;;;;;;5053032;28;20433;-57
2023/02/07 00:22:02;;;;;;;18.92;11.75;;;22.00;99.90;;;;;;5053129;28;20479;-56
2023/02/07 00:24:28;;;;;;;15.52;9.75;;;22.00;99.90;;;;;;5056611;28;20070;-55
2023/02/07 00:26:54;;;;;;;17.95;10.93;;;22.00;99.90;;;;;;5064624;28;20497;-56
2023/02/07 00:29:20;;;;;;;15.07;10.10;;;22.00;99.90;;;;;;5052745;28;20037;-57
2023/02/07 00:31:47;;;;;;;17.65;11.38;;;22.00;99.90;;;;;;5061837;28;20099;-57
2023/02/07 00:34:14;;;;;;;17.90;11.35;;;22.00;99.90;;;;;;5059127;28;20074;-55
2023/02/07 00:36:40;;;;;;;15.95;10.85;;;21.90;99.90;;;;;;5050826;28;20013;-56
2023/02/07 00:39:11;;;;;;;17.52;10.00;;;21.90;99.90;;;;;;5058479;28;20528;-55
2023/02/07 00:41:37;;;;;;;13.13;9.88;;;22.00;99.90;;;;;;5052684;28;20047;-58
2023/02/07 00:44:04;;;;;;;16.45;10.43;;;21.90;99.90;;;;;;5070624;28;20040;-56
2023/02/07 00:46:29;;;;;;;14.20;9.27;;;21.90;99.90;;;;;;5061359;28;20029;-56
2023/02/07 00:48:56;;;;;;;12.77;9.18;;;21.90;99.90;;;;;;5036754;28;20524;-57
2023/02/07 00:51:24;;;;;;;13.77;9.70;;;21.90;99.90;;;;;;5063775;28;20040;-57
2023/02/07 00:53:53;;;;;;;15.18;9.63;;;21.90;99.90;;;;;;5067420;28;20021;-56
2023/02/07 00:56:20;;;;;;;15.20;9.85;;;21.90;99.90;;;;;;5052438;28;20027;-57
2023/02/07 00:58:46;;;;;;;14.75;8.65;;;21.90;99.90;;;;;;5053893;28;20025;-57
2023/02/07 01:01:12;;;;;;;16.15;8.77;;;21.80;99.90;;;;;;5066131;28;20132;-57
2023/02/07 01:03:38;;;;;;;14.70;8.50;;;21.80;99.90;;;;;;5065658;28;20092;-56
2023/02/07 01:06:05;;;;;;;14.65;8.93;;;21.80;99.90;;;;;;5064542;28;20482;-60
2023/02/07 01:08:31;;;;;;;13.32;8.40;;;21.80;99.90;;;;;;5064750;28;20364;-60
2023/02/07 01:11:02;;;;;;;14.63;8.93;;;21.80;99.90;;;;;;5066429;28;20078;-60
2023/02/07 01:13:27;;;;;;;12.98;9.02;;;21.70;99.90;;;;;;5047326;28;20020;-59
2023/02/07 01:15:53;;;;;;;15.05;8.70;;;21.80;99.90;;;;;;5054003;28;20481;-59
2023/02/07 01:18:19;;;;;;;15.27;9.10;;;21.80;99.90;;;;;;5052155;28;20430;-58
2023/02/07 01:20:45;;;;;;;16.77;9.60;;;21.80;99.90;;;;;;5067064;28;20045;-58
2023/02/07 01:23:11;;;;;;;13.23;8.20;;;21.70;99.90;;;;;;5061877;28;20043;-57
2023/02/07 01:25:38;;;;;;;11.07;7.40;;;21.70;99.90;;;;;;5068548;28;20013;-58
2023/02/07 01:28:04;;;;;;;15.30;7.73;;;21.70;99.90;;;;;;5051938;28;20040;-56
2023/02/07 01:30:30;;;;;;;13.35;8.50;;;21.70;99.90;;;;;;5065417;28;20021;-56
2023/02/07 01:32:56;;;;;;;14.07;7.32;;;21.70;99.90;;;;;;5060611;28;20108;-56
2023/02/07 01:35:22;;;;;;;17.08;8.25;;;21.70;99.90;;;;;;5058639;28;20013;-56
2023/02/07 01:37:48;;;;;;;13.13;7.85;;;21.70;99.90;;;;;;5072030;28;20020;-56
2023/02/07 01:40:14;;;;;;;13.63;7.45;;;21.60;99.90;;;;;;5058033;28;20032;-56
2023/02/07 01:42:40;;;;;;;11.80;7.68;;;21.60;99.90;;;;;;5058260;28;20025;-58
2023/02/07 01:45:17;;;;;;;10.52;6.97;;;21.60;99.90;;;;;;5058738;28;20182;-58
2023/02/07 01:47:43;;;;;;;14.32;7.78;;;21.60;99.90;;;;;;5038517;28;20056;-58
2023/02/07 01:50:09;;;;;;;10.50;6.28;;;21.60;99.90;;;;;;5051990;28;20057;-60
2023/02/07 01:52:40;;;;;;;11.52;6.95;;;21.60;99.90;;;;;;5064820;28;20020;-59
2023/02/07 01:55:21;;;;;;;9.13;5.75;;;21.60;99.90;;;;;;5051790;28;20474;-58
2023/02/07 01:57:47;;;;;;;13.30;6.55;;;21.50;99.90;;;;;;5051645;28;20032;-59
2023/02/07 02:00:15;;;;;;;12.05;6.22;;;21.50;99.90;;;;;;5052103;28;20048;-58
2023/02/07 02:02:41;;;;;;;12.15;6.40;;;21.50;99.90;;;;;;5058562;28;20016;-58
2023/02/07 02:05:09;;;;;;;12.90;7.30;;;21.50;99.90;;;;;;5053088;28;20028;-59
2023/02/07 02:07:36;;;;;;;11.40;6.50;;;21.50;99.90;;;;;;5037312;28;20028;-60
2023/02/07 02:10:25;;;;;;;10.93;6.65;;;21.50;99.90;;;;;;5046161;28;20032;-58
2023/02/07 02:13:05;;;;;;;13.25;6.38;;;21.50;99.90;;;;;;5065283;28;20029;-60
2023/02/07 02:15:50;;;;;;;9.43;5.55;;;21.40;99.90;;;;;;5066869;28;20029;-59
2023/02/07 02:18:37;;;;;;;13.45;6.10;;;21.40;99.90;;;;;;5064569;28;20106;-60
2023/02/07 02:21:17;;;;;;;10.60;6.10;;;21.40;99.90;;;;;;5055533;28;20048;-60
2023/02/07 02:24:17;;;;;;;14.07;6.45;;;21.40;99.90;;;;;;5056380;28;20049;-58
2023/02/07 02:27:13;;;;;;;11.55;5.47;;;21.40;99.90;;;;;;5075393;28;20116;-58
2023/02/07 02:30:03;;;;;;;9.70;5.40;;;21.30;99.90;;;;;;5043469;28;20029;-60
2023/02/07 02:32:35;;;;;;;8.65;4.93;;;21.30;99.90;;;;;;5072988;28;20374;-58
2023/02/07 02:35:21;;;;;;;8.63;5.57;;;21.30;99.90;;;;;;5064598;28;20025;-58
2023/02/07 02:38:09;;;;;;;11.90;4.72;;;21.30;99.90;;;;;;5054851;28;20021;-56
2023/02/07 02:40:54;;;;;;;9.13;5.05;;;21.30;99.90;;;;;;5070098;28;20021;-56
2023/02/07 02:43:57;;;;;;;9.07;6.00;;;21.30;99.90;;;;;;5066925;28;20032;-56
2023/02/07 02:46:29;;;;;;;10.70;5.40;;;21.20;99.90;;;;;;5075137;28;20031;-58
2023/02/07 02:48:56;;;;;;;9.20;5.72;;;21.30;99.90;;;;;;5070525;28;20044;-56
2023/02/07 02:51:22;;;;;;;9.07;5.07;;;21.30;99.90;;;;;;5066145;28;20016;-57
2023/02/07 02:53:52;;;;;;;9.13;4.70;;;21.20;99.90;;;;;;5061353;28;20774;-57
2023/02/07 02:56:36;;;;;;;8.20;4.32;;;21.20;99.90;;;;;;5064878;28;20478;-59
2023/02/07 02:59:25;;;;;;;7.85;4.45;;;21.20;99.90;;;;;;5060706;28;20053;-60
2023/02/07 03:02:17;;;;;;;8.35;4.95;;;21.20;99.90;;;;;;5073720;28;20093;-60
2023/02/07 03:04:48;;;;;;;9.55;5.50;;;21.20;99.90;;;;;;5065750;28;20470;-60
2023/02/07 03:07:38;;;;;;;7.95;4.90;;;21.20;99.90;;;;;;5055761;28;20024;-60
2023/02/07 03:10:45;;;;;;;8.23;4.30;;;21.20;99.90;;;;;;5054756;28;20029;-60
2023/02/07 03:13:17;;;;;;;;;;;21.20;99.90;;;;;;5047526;28;20087;-60
2023/02/07 03:15:54;;;;;;;7.05;4.30;;;21.10;99.90;;;;;;5074273;28;19979;-61
2023/02/07 03:18:20;;;;;;;7.53;4.32;;;21.20;99.90;;;;;;5060594;28;20021;-61
2023/02/07 03:20:55;;;;;;;8.48;4.10;;;21.10;99.90;;;;;;5043464;28;20120;-61
2023/02/07 03:23:22;;;;;;;8.68;4.45;;;21.10;99.90;;;;;;5074226;28;20066;-60
2023/02/07 03:25:50;;;;;;;7.95;4.45;;;21.10;99.90;;;;;;5067656;28;20025;-61
2023/02/07 03:28:19;;;;;;;7.22;4.20;;;21.10;99.90;;;;;;5066799;28;20076;-60
2023/02/07 03:30:49;;;;;;;13.02;4.53;;;21.10;99.90;;;;;;5060762;28;20017;-60
2023/02/07 03:33:16;;;;;;;9.52;4.43;;;21.10;99.90;;;;;;5074251;28;20056;-60
2023/02/07 03:36:23;;;;;;;9.43;4.18;;;21.00;99.90;;;;;;5069197;28;20025;-61
2023/02/07 03:38:49;;;;;;;7.82;4.13;;;21.00;99.90;;;;;;4998740;28;20082;-58
2023/02/07 03:41:43;;;;;;;10.88;4.30;;;21.00;99.90;;;;;;5064874;28;20031;-61
2023/02/07 03:44:11;;;;;;;8.75;4.40;;;21.00;99.90;;;;;;5051750;28;20040;-61
2023/02/07 03:46:38;;;;;;;7.22;3.92;;;21.00;99.90;;;;;;5053916;28;20053;-63
2023/02/07 03:49:06;;;;;;;8.80;4.38;;;21.00;99.90;;;;;;5067741;28;20036;-61
2023/02/07 03:51:34;;;;;;;11.73;3.78;;;20.90;99.90;;;;;;5053890;28;20387;-61
2023/02/07 03:53:59;;;;;;;7.78;3.42;;;20.90;99.90;;;;;;5066972;28;20382;-61
2023/02/07 03:56:25;;;;;;;8.52;3.90;;;20.90;99.90;;;;;;5053711;28;20025;-60
2023/02/07 03:58:51;;;;;;;10.15;4.18;;;20.90;99.90;;;;;;5039545;28;20386;-60
2023/02/07 04:01:17;;;;;;;8.85;4.40;;;20.90;99.90;;;;;;5063188;28;20049;-61
2023/02/07 04:03:43;;;;;;;13.38;4.55;;;20.80;99.90;;;;;;5056252;28;20025;-61
2023/02/07 04:06:09;;;;;;;6.18;3.15;;;20.80;99.90;;;;;;5064359;28;20151;-60
2023/02/07 04:08:34;;;;;;;9.60;3.75;;;20.90;99.90;;;;;;5068447;28;20040;-60
2023/02/07 04:11:02;;;;;;;8.75;4.05;;;20.80;99.90;;;;;;5061047;28;20027;-61
2023/02/07 04:13:29;;;;;;;7.13;3.65;;;20.80;99.90;;;;;;5073360;28;20024;-60
2023/02/07 04:15:55;;;;;;;8.52;3.95;;;20.80;99.90;;;;;;5067272;28;20021;-60
2023/02/07 04:18:21;;;;;;;7.53;4.05;;;20.80;99.90;;;;;;5066449;28;20107;-59
2023/02/07 04:20:47;;;;;;;9.52;3.53;;;20.80;99.90;;;;;;5066280;28;20473;-59
2023/02/07 04:23:13;;;;;;;7.07;3.63;;;20.70;99.90;;;;;;5053355;28;20370;-60
2023/02/07 04:25:38;;;;;;;9.63;3.75;;;20.80;99.90;;;;;;5058239;28;20051;-60
2023/02/07 04:28:04;;;;;;;7.45;3.35;;;20.70;99.90;;;;;;5073121;28;20110;-60
2023/02/07 04:30:30;;;;;;;6.22;3.20;;;20.70;99.90;;;;;;5072768;28;20533;-59
2023/02/07 04:32:56;;;;;;;8.32;3.75;;;20.70;99.90;;;;;;5073132;28;20051;-61
2023/02/07 04:35:22;;;;;;;8.43;3.60;;;20.70;99.90;;;;;;5071153;28;20044;-60
2023/02/07 04:37:48;;;;;;;5.88;3.15;;;20.70;99.90;;;;;;5053061;28;20028;-60
2023/02/07 04:40:14;;;;;;;7.03;2.85;;;20.70;99.90;;;;;;5054068;28;20021;-60
2023/02/07 04:42:40;;;;;;;7.78;3.35;;;20.70;99.90;;;;;;5072613;28;20026;-61
2023/02/07 04:45:06;;;;;;;6.78;2.85;;;20.70;99.90;;;;;;5072993;28;20052;-62
2023/02/07 04:47:32;;;;;;;7.32;3.33;;;20.60;99.90;;;;;;5072739;28;20074;-62
2023/02/07 04:49:58;;;;;;;9.15;4.00;;;20.60;99.90;;;;;;5060701;28;20032;-61
2023/02/07 04:52:23;;;;;;;8.32;3.38;;;20.60;99.90;;;;;;5057879;28;20016;-61
2023/02/07 04:54:49;;;;;;;6.82;3.35;;;20.60;99.90;;;;;;5060367;28;20025;-61
2023/02/07 04:57:15;;;;;;;5.60;3.45;;;20.60;99.90;;;;;;5056122;28;20017;-60
2023/02/07 04:59:41;;;;;;;5.70;2.83;;;20.60;99.90;;;;;;5072936;28;20020;-56
2023/02/07 05:02:07;;;;;;;6.13;3.42;;;20.60;99.90;;;;;;5072894;28;20021;-60
2023/02/07 05:04:33;;;;;;;6.72;3.08;;;20.60;99.90;;;;;;5063368;28;20491;-59
2023/02/07 05:06:59;;;;;;;9.57;3.13;;;20.60;99.90;;;;;;5054376;28;20025;-59
2023/02/07 05:09:24;;;;;;;8.90;3.78;;;20.60;99.90;;;;;;5072363;28;20412;-60
2023/02/07 05:11:50;;;;;;;7.75;3.20;;;20.50;99.90;;;;;;5056541;28;20021;-59
2023/02/07 05:14:16;;;;;;;7.63;2.80;;;20.50;99.90;;;;;;5061249;28;20031;-59
2023/02/07 05:16:42;;;;;;;8.20;2.92;;;20.50;99.90;;;;;;5058993;28;20032;-59
2023/02/07 05:19:07;;;;;;;6.50;3.50;;;20.50;99.90;;;;;;5072184;28;20163;-59
2023/02/07 05:21:33;;;;;;;7.32;2.92;;;20.50;99.90;;;;;;5054162;28;20473;-59
2023/02/07 05:23:59;;;;;;;6.50;3.00;;;20.50;99.90;;;;;;5066080;28;20108;-60
2023/02/07 05:26:25;;;;;;;5.80;3.55;;;20.50;99.90;;;;;;5064768;28;20025;-60
2023/02/07 05:28:50;;;;;;;6.65;3.10;;;20.50;99.90;;;;;;5067437;28;20429;-60
2023/02/07 05:31:16;;;;;;;5.85;2.97;;;20.50;99.90;;;;;;5051995;28;20021;-60
2023/02/07 05:33:42;;;;;;;6.55;2.88;;;20.40;99.90;;;;;;5052079;28;20029;-61
2023/02/07 05:36:08;;;;;;;8.98;3.85;;;20.40;99.90;;;;;;5051817;28;20047;-60
2023/02/07 05:38:34;;;;;;;8.07;3.55;;;20.40;99.90;;;;;;5055125;28;20031;-61
2023/02/07 05:41:00;;;;;;;6.10;2.88;;;20.40;99.90;;;;;;5062063;28;20025;-61
2023/02/07 05:43:25;;;;;;;7.07;2.72;;;20.40;99.90;;;;;;5066703;28;20052;-61
2023/02/07 05:45:51;;;;;;;12.07;3.60;;;20.40;99.90;;;;;;5057954;28;20020;-61
2023/02/07 05:48:17;;;;;;;8.23;3.38;;;20.40;99.90;;;;;;5060856;28;20029;-58
2023/02/07 05:50:43;;;;;;;8.25;3.25;;;20.40;99.90;;;;;;5051164;28;20455;-58
2023/02/07 05:53:10;;;;;;;5.72;3.00;;;20.30;99.90;;;;;;5051528;28;20033;-57
2023/02/07 05:55:36;;;;;;;4.93;2.63;;;20.40;99.90;;;;;;5051665;28;20486;-58
2023/02/07 05:58:02;;;;;;;6.20;2.75;;;20.30;99.90;;;;;;5051693;28;20029;-57
2023/02/07 06:00:27;;;;;;;7.18;2.90;;;20.30;99.90;;;;;;5051606;28;20106;-58
2023/02/07 06:02:53;;;;;;;8.52;3.38;;;20.30;99.90;;;;;;5071674;28;20461;-57
2023/02/07 06:05:19;;;;;;;6.60;3.03;;;20.30;99.90;;;;;;5057886;28;20107;-57
2023/02/07 06:07:46;;;;;;;3.58;2.45;;;20.30;99.90;;;;;;5056928;28;20023;-57
2023/02/07 06:10:12;;;;;;;8.80;2.97;;;20.30;99.90;;;;;;5071585;28;20487;-56
2023/02/07 06:12:38;;;;;;;6.65;2.65;;;20.30;99.90;;;;;;5052460;28;20056;-55
2023/02/07 06:15:04;;;;;;;4.65;2.33;;;20.30;99.90;;;;;;5051451;28;20056;-55
2023/02/07 06:17:30;;;;;;;5.07;2.50;;;20.20;99.90;;;;;;5068659;28;20159;-54
2023/02/07 06:19:56;;;;;;;8.75;2.47;;;20.30;99.90;;;;;;5062367;28;20402;-55
2023/02/07 06:22:22;;;;;;;5.97;2.78;;;20.20;99.90;;;;;;5053818;28;20021;-55
2023/02/07 06:24:47;;;;;;;6.60;2.50;;;20.20;99.90;;;;;;5072023;28;20029;-55
2023/02/07 06:27:13;;;;;;;5.43;2.67;;;20.20;99.90;;;;;;5057599;28;20087;-56
2023/02/07 06:29:39;;;;;;;4.65;2.45;;;20.20;99.90;;;;;;5062157;28;20040;-56
2023/02/07 06:32:05;;;;;;;4.88;2.38;;;20.20;99.90;;;;;;5067156;28;20029;-55
2023/02/07 06:34:30;;;;;;;4.85;2.17;;;20.20;99.90;;;;;;5059862;28;20068;-56
2023/02/07 06:36:56;;;;;;;7.32;2.88;;;20.20;99.90;;;;;;5068801;28;20024;-56
2023/02/07 06:39:22;;;;;;;4.82;2.50;;;20.20;99.90;;;;;;5068684;28;20094;-56
2023/02/07 06:41:48;;;;;;;8.57;2.35;;;20.20;99.90;;;;;;5057629;28;20025;-55
2023/02/07 06:44:13;;;;;;;5.82;2.40;;;20.20;99.90;;;;;;5064970;28;20382;-56
2023/02/07 06:46:39;;;;;;;7.55;2.40;;;20.20;99.90;;;;;;5065866;28;20047;-55
2023/02/07 06:49:05;;;;;;;6.70;2.95;;;20.10;99.90;;;;;;5070329;28;20177;-56
2023/02/07 06:51:31;;;;;;;5.63;2.67;;;20.10;99.90;;;;;;5070493;28;20044;-56
2023/02/07 06:53:58;;;;;;;9.05;3.10;;;20.20;99.90;;;;;;5070537;28;20032;-53
2023/02/07 06:56:24;;;;;;;5.85;3.20;;;20.10;99.90;;;;;;5069836;28;20156;-56
2023/02/07 06:58:50;;;;;;;7.18;2.60;;;20.10;99.90;;;;;;5070907;28;20112;-55
2023/02/07 07:01:18;;;;;;;7.22;2.67;;;20.10;99.90;;;;;;5063409;28;20095;-57
2023/02/07 07:03:47;;;;;;;6.40;3.30;;;20.10;99.90;;;;;;5052604;28;20033;-57
2023/02/07 07:06:13;;;;;;;7.25;3.25;;;20.10;99.90;;;;;;5054679;28;20029;-56
2023/02/07 07:08:39;;;;;;;6.93;2.47;;;20.10;99.90;;;;;;5049827;28;20398;-59
2023/02/07 07:11:04;;;;;;;8.90;2.92;;;20.10;99.90;;;;;;5074579;28;20017;-57
2023/02/07 07:13:30;;;;;;;8.65;3.50;;;20.10;99.90;;;;;;5062786;28;20074;-58
2023/02/07 07:15:56;;;;;;;11.13;3.30;;;20.10;99.90;;;;;;5059448;28;20020;-57
2023/02/07 07:18:22;;;;;;;10.10;3.85;;;20.10;99.90;;;;;;5074443;28;20024;-56
2023/02/07 07:20:53;;;;;;;6.90;2.95;;;20.10;99.90;;;;;;5057491;28;20034;-56
2023/02/07 07:23:18;;;;;;;9.68;3.00;;;20.10;99.90;;;;;;5065615;28;20028;-58
2023/02/07 07:25:44;;;;;;;8.05;3.60;;;20.10;99.90;;;;;;5070381;28;20017;-56
2023/02/07 07:28:10;;;;;;;8.63;3.58;;;20.10;99.90;;;;;;5053981;28;20367;-56
2023/02/07 07:30:36;;;;;;;7.63;2.95;;;20.10;99.90;;;;;;5071277;28;20023;-56
2023/02/07 07:33:01;;;;;;;7.47;3.65;;;20.10;99.90;;;;;;5073933;28;20100;-56
2023/02/07 07:35:27;;;;;;;12.77;3.70;;;20.10;99.90;;;;;;5074088;28;20470;-59
2023/02/07 07:37:53;;;;;;;12.30;4.05;;;20.10;99.90;;;;;;5066291;28;20487;-60
2023/02/07 07:40:19;;;;;;;8.40;4.28;;;20.10;99.90;;;;;;5068529;28;20470;-60
2023/02/07 07:42:45;;;;;;;7.35;3.80;;;20.10;99.90;;;;;;5073210;28;20555;-60
2023/02/07 07:45:12;;;;;;;9.23;4.55;;;20.10;99.90;;;;;;5073095;28;20016;-59
2023/02/07 07:47:38;;;;;;;6.72;3.15;;;20.00;99.90;;;;;;5053646;28;20086;-59
2023/02/07 07:50:05;;;;;;;8.00;4.00;;;20.00;99.90;;;;;;5053453;28;20608;-58
2023/02/07 07:52:31;;;;;;;8.98;3.90;;;20.00;99.90;;;;;;5060722;28;20012;-59
2023/02/07 07:54:57;;;;;;;8.50;3.95;;;20.00;99.90;;;;;;5059814;28;20445;-60
2023/02/07 07:57:26;;;;;;;6.95;4.15;;;20.00;99.90;;;;;;5053543;28;20032;-60
2023/02/07 07:59:53;;;;;;;7.03;4.18;;;20.00;99.90;;;;;;5053374;28;20048;-60
2023/02/07 08:02:19;;;;;;;5.40;3.03;;;20.00;99.90;;;;;;5053662;28;20509;-61
2023/02/07 08:04:45;;;;;;;6.95;3.25;;;20.00;99.90;;;;;;5064974;28;20028;-60
2023/02/07 08:07:11;;;;;;;8.48;4.63;;;20.00;99.90;;;;;;5055065;28;20017;-60
2023/02/07 08:09:37;;;;;;;6.00;4.15;;;20.00;99.90;;;;;;5053208;28;20087;-60
2023/02/07 08:12:04;;;;;;;10.30;4.97;;;20.00;99.90;;;;;;5055819;28;20021;-60
2023/02/07 08:14:30;;;;;;;6.90;4.80;;;20.00;99.90;;;;;;5045179;28;20028;-62
2023/02/07 08:16:55;;;;;;;10.38;4.78;;;19.90;99.90;;;;;;5054698;28;20025;-62
2023/02/07 08:19:21;;;;;;;8.10;4.35;;;20.00;99.90;;;;;;5073395;28;20021;-62
2023/02/07 08:21:47;;;;;;;6.80;4.22;;;20.00;99.90;;;;;;5058242;28;20032;-61
2023/02/07 08:24:13;;;;;;;9.32;4.93;;;20.00;99.90;;;;;;5059612;28;20074;-61
2023/02/07 08:26:38;;;;;;;8.73;4.45;;;20.00;99.90;;;;;;5059776;28;20025;-60
2023/02/07 08:29:04;;;;;;;6.15;4.05;;;19.90;99.90;;;;;;5066171;28;20041;-58
2023/02/07 08:31:30;;;;;;;7.97;4.55;;;19.90;99.90;;;;;;5052975;28;20471;-59
2023/02/07 08:33:56;;;;;;;9.27;5.13;;;19.90;99.90;;;;;;5067241;28;20021;-59
2023/02/07 08:36:21;;;;;;;9.98;4.50;;;19.90;99.90;;;;;;5053010;28;20029;-58
2023/02/07 08:38:47;;;;;;;7.43;4.72;;;19.90;99.90;;;;;;5052622;28;20044;-58
2023/02/07 08:41:13;;;;;;;9.32;4.72;;;19.90;99.90;;;;;;5052925;28;20021;-58
2023/02/07 08:43:39;;;;;;;8.30;4.65;;;19.90;99.90;;;;;;5065940;28;20027;-58
2023/02/07 08:46:05;;;;;;;10.68;4.72;;;19.90;99.90;;;;;;5052834;28;20028;-60
2023/02/07 08:48:31;;;;;;;8.23;5.13;;;19.90;99.90;;;;;;5052524;28;20032;-60
2023/02/07 08:50:56;;;;;;;9.88;4.93;;;19.90;99.90;;;;;;5052580;28;20028;-59
2023/02/07 08:53:22;;;;;;;12.43;5.30;;;19.90;99.90;;;;;;5052905;28;20029;-60
2023/02/07 08:55:48;;;;;;;7.55;4.45;;;19.90;99.90;;;;;;5057537;28;20017;-60
2023/02/07 08:58:14;;;;;;;9.60;4.85;;;19.80;99.90;;;;;;5072352;28;20026;-60
2023/02/07 09:00:40;;;;;;;8.20;4.90;;;19.80;99.90;;;;;;5054733;28;20115;-60
2023/02/07 09:03:05;;;;;;;9.60;5.20;;;19.80;99.90;;;;;;5062726;28;20051;-61
2023/02/07 09:05:32;;;;;;;12.10;6.78;;;19.80;99.90;;;;;;5070065;28;20043;-60
2023/02/07 09:07:59;;;;;;;8.35;4.78;;;19.80;99.90;;;;;;5052158;28;20032;-61
2023/02/07 09:10:25;;;;;;;9.80;4.90;;;19.80;99.90;;;;;;5065606;28;20085;-61
2023/02/07 09:12:51;;;;;;;16.20;5.40;;;19.80;99.90;;;;;;5052230;28;20107;-60
2023/02/07 09:15:17;;;;;;;10.27;5.13;;;19.80;99.90;;;;;;5066316;28;20031;-63
2023/02/07 09:17:42;;;;;;;10.38;4.85;;;19.80;99.90;;;;;;5064428;28;20079;-59
2023/02/07 09:20:09;;;;;;;10.68;5.38;;;19.80;99.90;;;;;;5052260;28;20028;-62
2023/02/07 09:23:16;;;;;;;11.60;5.53;;;19.70;99.90;;;;;;5071727;28;20100;-61
2023/02/07 09:25:20;;;;;;;9.05;5.43;;;19.80;99.90;;;;;;5055811;28;20025;-60
2023/02/07 09:27:46;;;;;;;9.93;4.97;;;19.70;99.90;;;;;;5064355;28;20384;-60
2023/02/07 09:30:12;;;;;;;7.15;4.75;;;19.70;99.90;;;;;;5052646;28;20100;-60
2023/02/07 09:32:37;;;;;;;9.45;4.97;;;19.70;99.90;;;;;;5066381;28;20017;-60
2023/02/07 09:35:04;;;;;;;12.32;5.18;;;19.70;99.90;;;;;;5064447;28;20025;-60
2023/02/07 09:37:30;;;;;;;10.82;4.90;;;19.70;99.90;;;;;;5065892;28;20017;-60
2023/02/07 09:39:56;;;;;;;8.68;4.55;;;19.70;99.90;;;;;;5063083;28;20042;-60
2023/02/07 09:42:45;;;;;;;8.98;4.60;;;19.70;99.90;;;;;;5058352;28;20024;-60
2023/02/07 09:45:17;;;;;;;10.45;5.72;;;19.60;99.90;;;;;;5057985;28;20068;-58
2023/02/07 09:47:45;;;;;;;7.80;4.97;;;19.70;99.90;;;;;;5033978;28;20383;-57
2023/02/07 09:50:18;;;;;;;12.10;5.68;;;19.70;99.90;;;;;;5065306;28;20123;-58
2023/02/07 09:52:55;;;;;;;9.15;4.82;;;19.70;99.90;;;;;;5054084;28;20042;-60
2023/02/07 09:55:59;;;;;;;12.93;5.57;;;19.70;99.90;;;;;;5071717;28;20025;-61
2023/02/07 09:58:45;;;;;;;10.18;5.28;;;19.60;99.90;;;;;;5071854;28;20053;-60
2023/02/07 10:01:15;;;;;;;6.90;4.45;;;19.70;99.90;;;;;;5071158;28;20074;-61
2023/02/07 10:04:01;;;;;;;9.30;5.72;;;19.70;99.90;;;;;;5069400;28;20020;-60
2023/02/07 10:06:27;;;;;;;12.57;6.78;;;19.60;99.90;;;;;;5053715;28;20036;-61
2023/02/07 10:08:58;;;;;;;9.40;5.75;;;19.70;99.90;;;;;;5068638;28;20033;-59
2023/02/07 10:11:44;;;;;;;11.77;6.70;;;19.60;99.90;;;;;;5051786;28;20092;-60
2023/02/07 10:14:19;;;;;;;11.65;6.53;;;19.60;99.90;;;;;;5033560;28;20025;-60
2023/02/07 10:16:54;;;;;;;12.38;7.70;;;19.60;99.90;;;;;;5064198;28;20386;-59
2023/02/07 10:19:51;;;;;;;12.23;8.20;;;19.60;99.90;;;;;;5036886;28;20493;-59
2023/02/07 10:22:52;;;;;;;14.43;8.90;;;19.60;99.90;;;;;;5068193;28;20064;-60
2023/02/07 10:25:42;;;;;;;14.80;8.13;;;19.60;99.90;;;;;;5071343;28;20023;-61
2023/02/07 10:28:13;;;;;;;16.75;10.68;;;19.60;99.90;;;;;;5061637;28;20155;-61
2023/02/07 10:30:56;;;;;;;20.00;11.38;;;19.60;99.90;;;;;;5066941;28;20104;-60
2023/02/07 10:33:34;;;;;;;20.10;12.38;;;19.60;99.90;;;;;;5051323;28;20175;-60
2023/02/07 10:36:08;;;;;;;23.75;12.45;;;19.60;99.90;;;;;;5071510;28;20031;-62
2023/02/07 10:38:40;;;;;;;20.77;12.02;;;19.60;99.90;;;;;;5074459;28;20061;-60
2023/02/07 10:41:11;;;;;;;19.35;12.32;;;19.60;99.90;;;;;;5067935;28;20029;-61
2023/02/07 10:43:39;;;;;;;25.08;15.20;;;19.60;99.90;;;;;;5068972;28;20013;-61
2023/02/07 10:46:08;;;;;;;22.75;15.75;;;19.60;99.90;;;;;;5074860;28;20098;-61
2023/02/07 10:48:36;;;;;;;21.05;14.68;;;19.60;99.90;;;;;;5059499;28;20097;-59
2023/02/07 10:51:11;;;;;;;21.05;14.90;;;19.60;99.90;;;;;;5055204;28;20513;-60
2023/02/07 10:53:46;;;;;;;28.13;16.30;;;19.60;99.90;;;;;;5055097;28;20033;-61
2023/02/07 10:56:21;;;;;;;25.38;16.95;;;19.60;99.90;;;;;;5064550;28;20021;-59
2023/02/07 10:58:47;;;;;;;26.38;16.65;;;19.50;99.90;;;;;;5056970;28;20047;-60
2023/02/07 11:01:27;;;;;;;26.38;16.45;;;19.60;99.90;;;;;;5054596;28;20144;-59
2023/02/07 11:03:54;;;;;;;27.42;17.27;;;19.50;99.90;;;;;;5072669;28;20025;-59
2023/02/07 11:06:28;;;;;;;26.08;16.05;;;19.60;99.90;;;;;;5074739;28;20051;-59
2023/02/07 11:09:10;;;;;;;27.42;16.50;;;19.60;99.90;;;;;;5056324;28;20116;-60
2023/02/07 11:11:38;;;;;;;27.27;16.35;;;19.50;99.90;;;;;;5054548;28;20025;-60
2023/02/07 11:14:06;;;;;;;24.75;16.17;;;19.60;99.90;;;;;;5059714;28;20020;-58
2023/02/07 11:16:32;;;;;;;26.52;15.45;;;19.50;99.90;;;;;;5074729;28;20133;-60
2023/02/07 11:19:06;;;;;;;26.17;17.50;;;19.60;99.90;;;;;;5055246;28;20040;-58
2023/02/07 11:21:40;;;;;;;24.48;15.27;;;19.50;99.90;;;;;;5066602;28;20058;-60
2023/02/07 11:24:17;;;;;;;25.45;16.65;;;19.50;99.90;;;;;;5060838;28;20416;-61
2023/02/07 11:26:56;;;;;;;24.00;16.97;;;19.50;99.90;;;;;;5043911;28;20395;-59
2023/02/07 11:29:24;;;;;;;23.80;15.40;;;19.50;99.90;;;;;;5050093;28;20493;-60
2023/02/07 11:31:52;;;;;;;22.52;14.70;;;19.50;99.90;;;;;;5056549;28;20359;-61
2023/02/07 11:34:42;;;;;;;24.92;15.73;;;19.50;99.90;;;;;;5048699;28;20490;-61
2023/02/07 11:37:33;;;;;;;21.30;14.85;;;19.50;99.90;;;;;;5038731;28;20057;-60
2023/02/07 11:40:17;;;;;;;21.73;14.32;;;19.50;99.90;;;;;;5054177;28;20021;-60
2023/02/07 11:42:46;;;;;;;21.00;14.43;;;19.50;99.90;;;;;;5048691;28;20024;-61
2023/02/07 11:45:21;;;;;;;21.02;14.55;;;19.50;99.90;;;;;;5042875;28;20390;-61
2023/02/07 11:47:49;;;;;;;21.35;13.93;;;19.50;99.90;;;;;;5073854;28;20462;-58
2023/02/07 11:50:23;;;;;;;19.80;13.63;;;19.50;99.90;;;;;;5057783;28;20025;-58
2023/02/07 11:52:59;;;;;;;19.27;13.60;;;19.50;99.90;;;;;;5049841;28;20162;-59
2023/02/07 11:55:30;;;;;;;19.83;13.25;;;19.50;99.90;;;;;;5054620;28;20028;-58
2023/02/07 11:57:56;;;;;;;19.00;12.27;;;19.50;99.90;;;;;;5053590;28;20021;-58
2023/02/07 12:00:33;;;;;;;20.23;11.95;;;19.50;99.90;;;;;;5065119;28;20045;-58
2023/02/07 12:03:03;;;;;;;22.60;12.80;;;19.50;99.90;;;;;;5051196;28;20032;-60
2023/02/07 12:05:36;;;;;;;20.27;12.38;;;19.50;99.90;;;;;;5073481;28;20024;-59
2023/02/07 12:08:10;;;;;;;20.67;13.18;;;19.50;99.90;;;;;;5063476;28;20021;-58
2023/02/07 12:10:41;;;;;;;19.75;10.90;;;19.50;99.90;;;;;;5053254;28;20552;-59
2023/02/07 12:13:22;;;;;;;17.48;10.63;;;19.50;99.90;;;;;;5063859;28;20032;-58
2023/02/07 12:16:16;;;;;;;17.38;11.40;;;19.50;99.90;;;;;;5053861;28;20036;-59
2023/02/07 12:19:14;;;;;;;17.70;11.55;;;19.50;99.90;;;;;;5019007;28;20038;-58
2023/02/07 12:22:02;;;;;;;17.15;10.70;;;19.50;99.90;;;;;;5065904;28;20020;-59
2023/02/07 12:24:41;;;;;;;17.33;10.10;;;19.50;99.90;;;;;;5060527;28;20038;-60
2023/02/07 12:27:15;;;;;;;19.45;10.88;;;19.50;99.90;;;;;;5073660;28;20497;-60
2023/02/07 12:29:52;;;;;;;18.10;11.80;;;19.50;99.90;;;;;;5064397;28;20344;-59
2023/02/07 12:32:25;;;;;;;19.17;10.48;;;19.50;99.90;;;;;;5069544;28;20027;-59
2023/02/07 12:35:00;;;;;;;13.10;8.95;;;19.40;99.90;;;;;;5072761;28;20028;-59
2023/02/07 12:37:45;;;;;;;15.23;9.43;;;19.40;99.90;;;;;;5059541;28;20021;-58
2023/02/07 12:40:19;;;;;;;13.75;8.98;;;19.40;99.90;;;;;;5072755;28;20500;-60
2023/02/07 12:42:56;;;;;;;17.25;9.35;;;19.40;99.90;;;;;;5039201;28;20106;-58
2023/02/07 12:45:34;;;;;;;19.05;9.88;;;19.40;99.90;;;;;;5052699;28;20025;-60
2023/02/07 12:48:19;;;;;;;;;;;19.40;99.90;;;;;;5062687;28;20095;-58
2023/02/07 12:51:05;;;;;;;15.32;7.60;;;19.40;99.90;;;;;;5059414;28;19943;-58
2023/02/07 12:53:52;;;;;;;13.85;8.95;;;19.40;99.90;;;;;;5072749;28;20021;-58
2023/02/07 12:56:18;;;;;;;15.57;9.30;;;19.40;99.90;;;;;;5072680;28;20021;-58